createdAt,value
2022-08-22T00:01:31.440Z,16.87
2022-08-22T00:03:08.536Z,17.56
2022-08-22T00:06:51.207Z,16.93
2022-08-22T00:12:00.149Z,16.96
2022-08-22T00:17:32.118Z,16.93
2022-08-22T00:22:36.751Z,16.69
2022-08-22T00:27:46.857Z,16.81
2022-08-22T00:32:57.358Z,16.88
2022-08-22T00:38:19.983Z,16.73
2022-08-22T00:43:54.675Z,16.83
2022-08-22T00:49:19.279Z,16.76
2022-08-22T00:54:32.834Z,16.78
2022-08-22T00:59:42.662Z,16.64
2022-08-22T01:04:58.481Z,16.34
2022-08-22T01:10:22.069Z,16.50
2022-08-22T01:15:27.084Z,16.31
2022-08-22T01:20:28.588Z,16.38
2022-08-22T01:25:48.748Z,16.43
2022-08-22T01:31:10.823Z,16.23
2022-08-22T01:36:33.884Z,16.34
2022-08-22T01:41:59.578Z,16.44
2022-08-22T01:47:06.275Z,16.37
2022-08-22T01:52:11.711Z,16.17
2022-08-22T01:57:13.813Z,16.36
2022-08-22T02:02:37.064Z,16.20
2022-08-22T02:07:54.748Z,16.08
2022-08-22T02:13:08.522Z,16.17
2022-08-22T02:18:23.482Z,16.42
2022-08-22T02:23:30.619Z,16.35
2022-08-22T02:28:56.511Z,16.39
2022-08-22T02:34:02.425Z,16.26
2022-08-22T02:39:10.373Z,16.01
2022-08-22T02:44:24.347Z,16.15
2022-08-22T02:49:43.911Z,16.07
2022-08-22T02:54:45.651Z,15.99
2022-08-22T03:00:31.335Z,16.08
2022-08-22T03:05:36.810Z,16.04
2022-08-22T03:10:41.661Z,16.01
2022-08-22T03:15:55.090Z,15.94
2022-08-22T03:21:16.879Z,16.09
2022-08-22T03:26:26.056Z,16.02
2022-08-22T03:31:29.245Z,15.95
2022-08-22T03:36:32.011Z,16.07
2022-08-22T03:41:36.467Z,16.10
2022-08-22T03:47:02.833Z,16.07
2022-08-22T03:52:28.611Z,16.24
2022-08-22T03:57:41.966Z,16.05
2022-08-22T04:02:44.361Z,16.12
2022-08-22T04:08:26.130Z,16.19
2022-08-22T04:13:55.656Z,15.98
2022-08-22T04:19:05.720Z,16.15
2022-08-22T04:24:51.976Z,16.05
2022-08-22T04:30:04.482Z,16.14
2022-08-22T04:35:27.533Z,16.13
2022-08-22T04:40:35.140Z,16.17
2022-08-22T04:45:46.186Z,16.33
2022-08-22T04:50:55.010Z,16.19
2022-08-22T04:56:17.417Z,16.34
2022-08-22T05:01:47.973Z,16.33
2022-08-22T05:06:56.879Z,16.42
2022-08-22T05:12:03.872Z,16.35
2022-08-22T05:17:08.335Z,16.46
2022-08-22T05:22:19.200Z,16.43
2022-08-22T05:27:25.246Z,16.64
2022-08-22T05:32:34.683Z,16.77
2022-08-22T05:37:49.756Z,16.70
2022-08-22T05:42:52.553Z,16.73
2022-08-22T05:48:08.936Z,16.80
2022-08-22T05:53:17.463Z,16.84
2022-08-22T05:58:45.491Z,16.90
2022-08-22T06:03:56.969Z,17.01
2022-08-22T06:09:04.874Z,17.08
2022-08-22T06:14:28.348Z,17.35
2022-08-22T06:19:33.655Z,17.37
2022-08-22T06:24:37.511Z,17.34
2022-08-22T06:29:45.935Z,17.44
2022-08-22T06:34:47.713Z,17.61
2022-08-22T06:39:52.476Z,17.48
2022-08-22T06:45:07.068Z,17.69
2022-08-22T06:50:16.566Z,17.93
2022-08-22T06:55:18.381Z,17.91
2022-08-22T07:00:20.429Z,18.03
2022-08-22T07:05:28.628Z,18.09
2022-08-22T07:10:30.237Z,18.23
2022-08-22T07:15:36.570Z,18.42
2022-08-22T07:20:41.993Z,18.34
2022-08-22T07:26:16.809Z,18.49
2022-08-22T07:31:41.242Z,18.64
2022-08-22T07:37:03.447Z,18.90
2022-08-22T07:42:11.293Z,18.92
2022-08-22T07:47:17.976Z,19.02
2022-08-22T07:52:43.889Z,19.08
2022-08-22T07:57:54.763Z,19.19
2022-08-22T08:03:01.497Z,19.45
2022-08-22T08:08:08.442Z,19.67
2022-08-22T08:13:20.845Z,19.78
2022-08-22T08:18:26.037Z,19.98
2022-08-22T08:23:35.798Z,20.17
2022-08-22T08:28:44.403Z,20.32
2022-08-22T08:33:48.692Z,20.37
2022-08-22T08:38:58.104Z,20.41
2022-08-22T08:44:14.621Z,20.57
2022-08-22T08:49:29.465Z,20.58
2022-08-22T08:55:00.223Z,20.69
2022-08-22T09:00:13.415Z,20.50
2022-08-22T09:05:52.115Z,20.53
2022-08-22T09:11:09.566Z,20.66
2022-08-22T09:16:31.635Z,20.77
2022-08-22T09:22:04.259Z,20.90
2022-08-22T09:27:15.962Z,20.92
2022-08-22T09:32:21.400Z,21.17
2022-08-22T09:37:55.049Z,21.04
2022-08-22T09:43:13.715Z,21.15
2022-08-22T09:48:48.718Z,21.03
2022-08-22T09:54:05.447Z,21.21
2022-08-22T09:59:12.284Z,21.28
2022-08-22T10:04:31.378Z,21.38
2022-08-22T10:09:53.603Z,21.52
2022-08-22T10:15:23.372Z,21.47
2022-08-22T10:20:31.544Z,21.65
2022-08-22T10:25:42.448Z,21.89
2022-08-22T10:31:02.077Z,21.91
2022-08-22T10:36:13.167Z,22.02
2022-08-22T10:41:26.710Z,21.76
2022-08-22T10:46:39.053Z,22.15
2022-08-22T10:51:52.030Z,21.89
2022-08-22T10:57:25.725Z,21.63
2022-08-22T11:02:36.401Z,21.77
2022-08-22T11:07:48.428Z,21.92
2022-08-22T11:13:12.659Z,21.80
2022-08-22T11:18:14.757Z,21.99
2022-08-22T11:23:46.129Z,21.95
2022-08-22T11:29:02.846Z,21.80
2022-08-22T11:34:39.166Z,22.06
2022-08-22T11:39:58.420Z,21.97
2022-08-22T11:45:02.618Z,22.19
2022-08-22T11:50:13.272Z,22.02
2022-08-22T11:55:32.626Z,21.97
2022-08-22T12:00:50.726Z,21.75
2022-08-22T12:06:09.622Z,21.71
2022-08-22T12:11:39.229Z,21.79
2022-08-22T12:17:02.425Z,21.95
2022-08-22T12:22:14.422Z,21.90
2022-08-22T12:27:29.047Z,21.96
2022-08-22T12:33:09.813Z,21.99
2022-08-22T12:38:42.427Z,22.12
2022-08-22T12:43:59.081Z,22.13
2022-08-22T12:49:23.575Z,21.92
2022-08-22T12:54:49.700Z,21.98
2022-08-22T12:59:59.339Z,21.98
2022-08-22T13:05:19.936Z,22.07
2022-08-22T13:10:51.828Z,22.19
2022-08-22T13:15:58.896Z,21.83
2022-08-22T13:21:05.751Z,21.75
2022-08-22T13:26:10.472Z,21.72
2022-08-22T13:31:34.587Z,21.60
2022-08-22T13:36:51.720Z,21.54
2022-08-22T13:42:01.161Z,21.58
2022-08-22T13:47:14.143Z,21.52
2022-08-22T13:52:39.112Z,21.58
2022-08-22T13:57:53.991Z,21.56
2022-08-22T14:03:05.645Z,21.66
2022-08-22T14:08:16.253Z,21.56
2022-08-22T14:13:31.097Z,21.54
2022-08-22T14:18:45.657Z,21.72
2022-08-22T14:23:51.557Z,21.70
2022-08-22T14:28:56.584Z,21.58
2022-08-22T14:34:03.509Z,21.74
2022-08-22T14:39:11.182Z,21.56
2022-08-22T14:44:18.939Z,21.63
2022-08-22T14:49:29.290Z,21.75
2022-08-22T14:54:32.777Z,21.60
2022-08-22T14:59:43.522Z,21.61
2022-08-22T15:04:48.186Z,21.57
2022-08-22T15:10:06.203Z,21.64
2022-08-22T15:15:10.682Z,21.67
2022-08-22T15:20:27.974Z,21.49
2022-08-22T15:25:42.754Z,21.42
2022-08-22T15:30:57.987Z,21.37
2022-08-22T15:36:22.644Z,21.41
2022-08-22T15:41:31.485Z,21.35
2022-08-22T15:46:42.256Z,21.35
2022-08-22T15:51:59.051Z,21.24
2022-08-22T15:57:12.894Z,21.17
2022-08-22T16:02:37.020Z,21.13
2022-08-22T16:07:38.557Z,21.09
2022-08-22T16:12:45.908Z,21.03
2022-08-22T16:17:53.304Z,20.99
2022-08-22T16:22:57.915Z,20.90
2022-08-22T16:27:59.945Z,20.94
2022-08-22T16:33:02.503Z,20.87
2022-08-22T16:38:04.256Z,20.90
2022-08-22T16:43:12.268Z,20.83
2022-08-22T16:48:40.985Z,20.82
2022-08-22T16:54:10.420Z,20.74
2022-08-22T16:59:24.128Z,20.82
2022-08-22T17:04:52.989Z,20.72
2022-08-22T17:10:26.909Z,20.76
2022-08-22T17:15:28.381Z,20.54
2022-08-22T17:21:04.193Z,20.65
2022-08-22T17:26:18.027Z,20.56
2022-08-22T17:31:36.938Z,20.61
2022-08-22T17:36:41.493Z,20.51
2022-08-22T17:41:51.266Z,20.53
2022-08-22T17:47:02.352Z,20.40
2022-08-22T17:52:16.105Z,20.42
2022-08-22T17:57:46.849Z,20.36
2022-08-22T18:03:00.862Z,20.35
2022-08-22T18:08:37.597Z,20.30
2022-08-22T18:13:55.428Z,20.34
2022-08-22T18:19:24.107Z,20.35
2022-08-22T18:24:34.560Z,20.39
2022-08-22T18:30:00.551Z,20.30
2022-08-22T18:35:09.112Z,20.29
2022-08-22T18:40:36.843Z,20.19
2022-08-22T18:45:51.746Z,20.20
2022-08-22T18:51:24.423Z,20.12
2022-08-22T18:56:36.653Z,20.12
2022-08-22T19:01:50.262Z,20.08
2022-08-22T19:07:13.722Z,20.09
2022-08-22T19:12:35.537Z,20.05
2022-08-22T19:17:58.743Z,19.96
2022-08-22T19:23:31.852Z,20.08
2022-08-22T19:28:37.357Z,20.01
2022-08-22T19:33:40.617Z,19.95
2022-08-22T19:38:56.814Z,19.90
2022-08-22T19:43:58.383Z,19.81
2022-08-22T19:48:59.944Z,19.75
2022-08-22T19:54:01.440Z,19.70
2022-08-22T19:59:21.785Z,19.70
2022-08-22T20:04:23.293Z,19.74
2022-08-22T20:09:42.652Z,19.64
2022-08-22T20:14:46.620Z,19.59
2022-08-22T20:25:44.387Z,19.55
2022-08-22T20:30:46.794Z,19.34
2022-08-22T20:35:55.021Z,19.27
2022-08-22T20:41:11.082Z,19.39
2022-08-22T20:46:43.556Z,19.24
2022-08-22T20:52:01.130Z,19.22
2022-08-22T20:57:13.917Z,19.26
2022-08-22T21:02:23.398Z,19.17
2022-08-22T21:07:30.219Z,19.14
2022-08-22T21:12:31.913Z,19.03
2022-08-22T21:17:34.345Z,19.00
2022-08-22T21:22:37.130Z,18.95
2022-08-22T21:27:39.003Z,18.72
2022-08-22T21:32:43.623Z,18.67
2022-08-22T21:37:45.972Z,18.54
2022-08-22T21:43:06.917Z,18.58
2022-08-22T21:48:34.632Z,18.47
2022-08-22T21:53:36.236Z,18.49
2022-08-22T21:58:41.888Z,18.57
2022-08-22T22:03:43.480Z,18.58
2022-08-22T22:08:47.446Z,18.35
2022-08-22T22:13:49.238Z,18.33
2022-08-22T22:18:50.843Z,18.44
2022-08-22T22:23:52.586Z,18.40
2022-08-22T22:28:54.576Z,18.56
2022-08-22T22:33:56.311Z,18.21
2022-08-22T22:38:57.931Z,18.36
2022-08-22T22:43:59.491Z,18.17
2022-08-22T22:49:01.156Z,18.25
2022-08-22T22:54:02.751Z,18.23
2022-08-22T22:59:13.001Z,18.24
2022-08-22T23:04:16.438Z,18.26
2022-08-22T23:09:18.034Z,18.24
2022-08-22T23:14:19.803Z,18.29
2022-08-22T23:19:21.358Z,18.35
2022-08-22T23:24:23.751Z,18.33
2022-08-22T23:29:25.848Z,18.18
2022-08-22T23:34:33.608Z,18.17
2022-08-22T23:39:38.145Z,18.34
2022-08-22T23:44:40.723Z,18.46
2022-08-22T23:49:43.120Z,18.36
2022-08-22T23:54:44.739Z,18.25
2022-08-22T23:59:57.224Z,18.27
